createdAt,value
2023-03-05T00:03:22.814Z,-4.92
2023-03-05T00:08:24.479Z,-4.97
2023-03-05T00:13:26.129Z,-5.02
2023-03-05T00:18:27.590Z,-5.07
2023-03-05T00:23:29.134Z,-5.12
2023-03-05T00:28:30.595Z,-5.12
2023-03-05T00:33:32.452Z,-5.14
2023-03-05T00:38:35.486Z,-5.17
2023-03-05T00:43:37.490Z,-5.12
2023-03-05T00:48:39.139Z,-5.09
2023-03-05T00:53:43.846Z,-5.04
2023-03-05T00:58:45.326Z,-4.89
2023-03-05T01:03:47.115Z,-4.79
2023-03-05T01:08:48.682Z,-4.69
2023-03-05T01:13:50.147Z,-4.60
2023-03-05T01:18:52.411Z,-4.50
2023-03-05T01:23:54.254Z,-4.45
2023-03-05T01:28:55.760Z,-4.43
2023-03-05T01:33:57.738Z,-4.40
2023-03-05T01:38:59.294Z,-4.40
2023-03-05T01:44:00.990Z,-4.39
2023-03-05T01:49:11.601Z,-4.35
2023-03-05T01:54:17.370Z,-4.33
2023-03-05T01:59:20.061Z,-4.32
2023-03-05T02:04:26.577Z,-4.32
2023-03-05T02:09:28.826Z,-4.34
2023-03-05T02:14:31.249Z,-4.36
2023-03-05T02:19:50.850Z,-4.36
2023-03-05T02:24:52.750Z,-4.34
2023-03-05T02:29:54.248Z,-4.35
2023-03-05T02:34:55.777Z,-4.38
2023-03-05T02:39:57.260Z,-4.44
2023-03-05T02:44:59.383Z,-4.46
2023-03-05T02:50:01.020Z,-4.48
2023-03-05T02:55:02.906Z,-4.50
2023-03-05T03:00:06.078Z,-4.50
2023-03-05T03:05:08.231Z,-4.53
2023-03-05T03:10:10.912Z,-4.54
2023-03-05T03:15:15.198Z,-4.55
2023-03-05T03:20:18.161Z,-4.55
2023-03-05T03:25:23.087Z,-4.58
2023-03-05T03:30:24.644Z,-4.59
2023-03-05T03:35:26.156Z,-4.60
2023-03-05T03:40:27.814Z,-4.59
2023-03-05T03:45:29.318Z,-4.59
2023-03-05T03:50:31.274Z,-4.60
2023-03-05T03:55:33.615Z,-4.61
2023-03-05T04:00:35.394Z,-4.61
2023-03-05T04:05:36.893Z,-4.62
2023-03-05T04:10:39.947Z,-4.60
2023-03-05T04:15:41.560Z,-4.58
2023-03-05T04:20:43.052Z,-4.58
2023-03-05T04:25:44.552Z,-4.55
2023-03-05T04:30:46.436Z,-4.53
2023-03-05T04:35:48.187Z,-4.53
2023-03-05T04:40:50.066Z,-4.55
2023-03-05T04:45:51.599Z,-4.54
2023-03-05T04:50:53.160Z,-4.51
2023-03-05T04:55:55.745Z,-4.45
2023-03-05T05:01:02.507Z,-4.39
2023-03-05T05:06:04.574Z,-4.32
2023-03-05T05:11:08.018Z,-4.22
2023-03-05T05:16:10.045Z,-4.11
2023-03-05T05:21:13.886Z,-4.01
2023-03-05T05:26:15.497Z,-3.95
2023-03-05T05:31:18.018Z,-3.91
2023-03-05T05:36:22.749Z,-3.83
2023-03-05T05:41:24.813Z,-3.76
2023-03-05T05:46:26.430Z,-3.68
2023-03-05T05:51:28.136Z,-3.59
2023-03-05T05:56:29.629Z,-3.47
2023-03-05T06:01:33.434Z,-3.33
2023-03-05T06:06:35.160Z,-3.16
2023-03-05T06:11:38.014Z,-2.97
2023-03-05T06:16:39.917Z,-2.78
2023-03-05T06:21:43.127Z,-2.63
2023-03-05T06:26:46.803Z,-2.58
2023-03-05T06:31:48.261Z,-2.48
2023-03-05T06:36:49.999Z,-2.27
2023-03-05T06:41:52.681Z,-1.85
2023-03-05T06:46:54.289Z,-1.40
2023-03-05T06:51:55.742Z,-1.06
2023-03-05T06:56:57.454Z,-0.98
2023-03-05T07:01:59.187Z,-1.02
2023-03-05T07:07:01.178Z,-1.07
2023-03-05T07:12:02.774Z,-1.13
2023-03-05T07:17:06.976Z,-1.19
2023-03-05T07:22:08.937Z,-1.19
2023-03-05T07:27:10.827Z,-1.16
2023-03-05T07:32:12.569Z,-1.03
2023-03-05T07:37:14.578Z,-0.74
2023-03-05T07:42:16.258Z,-0.18
2023-03-05T07:47:17.817Z,0.55
2023-03-05T07:52:19.369Z,1.04
2023-03-05T07:57:20.908Z,1.54
2023-03-05T08:02:23.103Z,1.76
2023-03-05T08:07:24.951Z,1.72
2023-03-05T08:12:26.451Z,1.77
2023-03-05T08:17:27.948Z,1.84
2023-03-05T08:22:30.134Z,2.00
2023-03-05T08:27:32.345Z,2.15
2023-03-05T08:32:33.957Z,2.36
2023-03-05T08:37:36.416Z,2.36
2023-03-05T08:42:37.903Z,2.23
2023-03-05T08:47:39.759Z,2.20
2023-03-05T08:52:41.343Z,2.16
2023-03-05T08:57:42.822Z,1.97
2023-03-05T09:02:44.440Z,1.79
2023-03-05T09:07:46.106Z,1.52
2023-03-05T09:12:49.262Z,1.41
2023-03-05T09:17:50.813Z,1.35
2023-03-05T09:22:52.847Z,1.44
2023-03-05T09:27:54.416Z,1.43
2023-03-05T09:32:55.990Z,1.38
2023-03-05T09:37:57.932Z,1.27
2023-03-05T09:43:25.297Z,1.14
2023-03-05T09:48:44.977Z,1.05
2023-03-05T09:54:07.452Z,1.06
2023-03-05T09:59:53.140Z,1.11
2023-03-05T10:05:09.705Z,1.20
2023-03-05T10:10:11.258Z,1.25
2023-03-05T10:15:14.535Z,1.34
2023-03-05T10:20:31.419Z,1.36
2023-03-05T10:26:02.084Z,1.36
2023-03-05T10:31:25.504Z,1.38
2023-03-05T10:36:47.001Z,1.49
2023-03-05T10:42:08.736Z,1.49
2023-03-05T10:47:49.972Z,1.47
2023-03-05T10:53:28.974Z,1.39
2023-03-05T10:58:34.517Z,1.37
2023-03-05T11:04:00.273Z,1.27
2023-03-05T11:09:34.195Z,1.17
2023-03-05T11:14:38.780Z,1.10
2023-03-05T11:19:40.323Z,1.03
2023-03-05T11:24:42.425Z,1.00
2023-03-05T11:29:49.883Z,0.98
2023-03-05T11:34:52.811Z,0.94
2023-03-05T11:40:20.388Z,0.91
2023-03-05T11:45:23.798Z,0.88
2023-03-05T11:50:28.910Z,0.82
2023-03-05T11:55:38.150Z,0.68
2023-03-05T12:00:44.436Z,0.58
2023-03-05T12:05:51.284Z,0.52
2023-03-05T12:10:53.410Z,0.43
2023-03-05T12:16:26.378Z,0.30
2023-03-05T12:21:38.887Z,0.18
2023-03-05T12:27:02.203Z,-0.02
2023-03-05T12:32:06.361Z,0.07
2023-03-05T12:37:33.689Z,0.17
2023-03-05T12:42:35.489Z,0.29
2023-03-05T12:47:40.308Z,0.35
2023-03-05T12:52:46.030Z,0.33
2023-03-05T12:57:52.590Z,0.24
2023-03-05T13:03:00.632Z,0.12
2023-03-05T13:08:23.591Z,0.14
2023-03-05T13:13:27.611Z,0.09
2023-03-05T13:18:32.667Z,0.15
2023-03-05T13:23:35.579Z,0.16
2023-03-05T13:28:39.509Z,0.25
2023-03-05T13:33:49.079Z,0.31
2023-03-05T13:38:51.643Z,0.19
2023-03-05T13:43:56.179Z,0.03
2023-03-05T13:49:18.055Z,-0.09
2023-03-05T13:54:21.378Z,-0.22
2023-03-05T13:59:34.860Z,-0.25
2023-03-05T14:04:41.255Z,-0.20
2023-03-05T14:09:48.848Z,-0.14
2023-03-05T14:14:51.306Z,-0.06
2023-03-05T14:20:08.588Z,-0.12
2023-03-05T14:25:37.709Z,-0.27
2023-03-05T14:30:45.808Z,-0.35
2023-03-05T14:35:52.488Z,-0.31
2023-03-05T14:40:54.235Z,-0.25
2023-03-05T14:45:55.775Z,-0.28
2023-03-05T14:50:58.416Z,-0.34
2023-03-05T14:55:59.929Z,-0.36
2023-03-05T15:01:01.718Z,-0.29
2023-03-05T15:06:03.432Z,-0.27
2023-03-05T15:11:06.953Z,-0.26
2023-03-05T15:16:15.630Z,-0.32
2023-03-05T15:21:17.414Z,-0.43
2023-03-05T15:26:18.996Z,-0.54
2023-03-05T15:31:20.555Z,-0.70
2023-03-05T15:36:22.275Z,-0.83
2023-03-05T15:41:23.892Z,-0.90
2023-03-05T15:46:25.755Z,-0.94
2023-03-05T15:51:27.433Z,-1.01
2023-03-05T15:56:28.974Z,-1.06
2023-03-05T16:01:30.641Z,-1.11
2023-03-05T16:06:34.556Z,-1.16
2023-03-05T16:11:40.067Z,-1.22
2023-03-05T16:16:41.780Z,-1.37
2023-03-05T16:21:43.674Z,-1.54
2023-03-05T16:26:45.172Z,-1.71
2023-03-05T16:31:47.701Z,-1.87
2023-03-05T16:36:52.728Z,-2.00
2023-03-05T16:41:54.300Z,-2.10
2023-03-05T16:46:56.476Z,-2.14
2023-03-05T16:52:01.416Z,-2.03
2023-03-05T16:57:09.063Z,-1.92
2023-03-05T17:02:13.214Z,-1.88
2023-03-05T17:07:15.021Z,-1.90
2023-03-05T17:12:16.506Z,-1.89
2023-03-05T17:17:18.070Z,-1.93
2023-03-05T17:22:19.626Z,-2.06
2023-03-05T17:27:22.861Z,-2.23
2023-03-05T17:32:24.400Z,-2.40
2023-03-05T17:37:25.993Z,-2.44
2023-03-05T17:42:27.484Z,-2.40
2023-03-05T17:47:32.627Z,-2.32
2023-03-05T17:52:39.151Z,-2.28
2023-03-05T17:57:42.506Z,-2.21
2023-03-05T18:02:44.864Z,-2.22
2023-03-05T18:07:46.715Z,-2.33
2023-03-05T18:12:49.410Z,-2.48
2023-03-05T18:17:51.571Z,-2.59
2023-03-05T18:22:53.665Z,-2.73
2023-03-05T18:27:55.551Z,-2.88
2023-03-05T18:32:57.530Z,-3.04
2023-03-05T18:38:00.529Z,-3.18
2023-03-05T18:43:03.219Z,-3.30
2023-03-05T18:48:04.730Z,-3.39
2023-03-05T18:53:06.653Z,-3.50
2023-03-05T18:58:15.836Z,-3.61
2023-03-05T19:03:19.845Z,-3.68
2023-03-05T19:08:23.155Z,-3.77
2023-03-05T19:13:49.309Z,-3.85
2023-03-05T19:19:15.444Z,-3.89
2023-03-05T19:24:17.536Z,-3.91
2023-03-05T19:29:19.233Z,-3.96
2023-03-05T19:34:21.587Z,-4.03
2023-03-05T19:39:23.182Z,-4.09
2023-03-05T19:44:24.712Z,-4.16
2023-03-05T19:49:26.417Z,-4.22
2023-03-05T19:54:28.064Z,-4.26
2023-03-05T19:59:29.642Z,-4.28
2023-03-05T20:04:31.562Z,-4.31
2023-03-05T20:09:33.073Z,-4.37
2023-03-05T20:14:34.559Z,-4.40
2023-03-05T20:19:36.390Z,-4.43
2023-03-05T20:24:38.243Z,-4.46
2023-03-05T20:29:39.743Z,-4.49
2023-03-05T20:34:41.349Z,-4.53
2023-03-05T20:39:42.871Z,-4.60
2023-03-05T20:44:44.954Z,-4.58
2023-03-05T20:49:46.441Z,-4.55
2023-03-05T20:54:48.159Z,-4.55
2023-03-05T20:59:49.658Z,-4.56
2023-03-05T21:04:51.150Z,-4.63
2023-03-05T21:09:55.323Z,-4.79
2023-03-05T21:14:56.901Z,-4.97
2023-03-05T21:19:58.425Z,-5.04
2023-03-05T21:25:33.179Z,-5.00
2023-03-05T21:30:40.883Z,-4.96
2023-03-05T21:35:43.239Z,-4.94
2023-03-05T21:40:48.786Z,-4.99
2023-03-05T21:45:53.588Z,-5.10
2023-03-05T21:50:55.555Z,-5.28
2023-03-05T21:56:22.782Z,-5.47
2023-03-05T22:01:24.307Z,-5.70
2023-03-05T22:06:26.258Z,-5.90
2023-03-05T22:11:27.742Z,-5.98
2023-03-05T22:16:29.333Z,-5.98
2023-03-05T22:21:32.094Z,-5.99
2023-03-05T22:26:36.612Z,-5.92
2023-03-05T22:31:38.936Z,-5.80
2023-03-05T22:36:40.481Z,-5.69
2023-03-05T22:41:42.341Z,-5.63
2023-03-05T22:46:44.463Z,-5.55
2023-03-05T22:51:46.235Z,-5.53
2023-03-05T22:56:48.062Z,-5.52
2023-03-05T23:01:49.890Z,-5.53
2023-03-05T23:06:51.370Z,-5.46
2023-03-05T23:11:53.230Z,-5.37
2023-03-05T23:16:54.730Z,-5.34
2023-03-05T23:21:56.603Z,-5.28
2023-03-05T23:26:58.433Z,-5.16
2023-03-05T23:31:59.902Z,-4.96
2023-03-05T23:37:01.410Z,-4.82
2023-03-05T23:42:03.267Z,-4.70
2023-03-05T23:47:04.886Z,-4.62
2023-03-05T23:52:06.538Z,-4.53
2023-03-05T23:57:08.028Z,-4.42
